createdAt,value
2019-02-05T00:02:34.543Z,41.60
2019-02-05T00:07:35.866Z,34.07
2019-02-05T00:12:37.224Z,22.27
2019-02-05T00:17:38.529Z,16.33
2019-02-05T00:22:40.280Z,27.53
2019-02-05T00:27:41.590Z,31.03
2019-02-05T00:32:42.894Z,39.73
2019-02-05T00:37:44.165Z,34.47
2019-02-05T00:42:45.473Z,24.17
2019-02-05T00:47:46.776Z,24.63
2019-02-05T00:52:48.102Z,20.20
2019-02-05T00:57:49.402Z,19.00
2019-02-05T01:02:51.356Z,17.07
2019-02-05T01:07:52.654Z,20.30
2019-02-05T01:12:54.106Z,20.03
2019-02-05T01:17:55.414Z,20.30
2019-02-05T01:22:56.768Z,18.23
2019-02-05T01:27:58.063Z,18.13
2019-02-05T01:32:59.374Z,20.37
2019-02-05T01:38:00.701Z,21.70
2019-02-05T01:43:01.980Z,15.90
2019-02-05T01:48:03.315Z,15.47
2019-02-05T01:53:04.606Z,11.43
2019-02-05T01:58:05.909Z,6.10
2019-02-05T02:03:07.181Z,13.37
2019-02-05T02:08:08.492Z,11.37
2019-02-05T02:13:09.850Z,15.07
2019-02-05T02:18:11.162Z,13.60
2019-02-05T02:23:12.779Z,15.07
2019-02-05T02:28:14.090Z,17.93
2019-02-05T02:33:15.394Z,15.53
2019-02-05T02:38:16.691Z,11.03
2019-02-05T02:43:17.988Z,19.87
2019-02-05T02:48:19.297Z,8.40
2019-02-05T02:53:20.614Z,12.20
2019-02-05T02:58:21.888Z,11.33
2019-02-05T03:03:23.498Z,12.93
2019-02-05T03:08:24.806Z,12.10
2019-02-05T03:13:26.140Z,8.53
2019-02-05T03:18:27.696Z,29.30
2019-02-05T03:23:29.004Z,14.03
2019-02-05T03:28:30.267Z,10.97
2019-02-05T03:33:31.713Z,11.07
2019-02-05T03:38:32.967Z,7.40
2019-02-05T03:43:34.411Z,8.13
2019-02-05T03:48:36.096Z,10.03
2019-02-05T03:53:50.165Z,10.70
2019-02-05T03:59:04.179Z,4.90
2019-02-05T04:04:15.117Z,10.43
2019-02-05T04:09:26.166Z,11.77
2019-02-05T04:14:43.518Z,14.07
2019-02-05T04:19:51.913Z,9.57
2019-02-05T04:25:08.714Z,9.47
2019-02-05T04:30:31.810Z,10.08
2019-02-05T04:35:36.904Z,15.23
2019-02-05T04:40:53.647Z,9.93
2019-02-05T04:46:24.011Z,50.23
2019-02-05T04:51:41.056Z,24.70
2019-02-05T04:56:51.897Z,6.87
2019-02-05T05:02:09.056Z,7.00
2019-02-05T05:12:16.136Z,8.20
2019-02-05T05:17:17.776Z,14.10
2019-02-05T05:22:19.075Z,13.83
2019-02-05T05:27:20.580Z,16.93
2019-02-05T05:32:21.888Z,10.33
2019-02-05T05:37:23.239Z,12.97
2019-02-05T05:42:24.503Z,7.83
2019-02-05T05:47:25.815Z,10.50
2019-02-05T05:52:27.132Z,8.53
2019-02-05T05:57:28.454Z,15.97
2019-02-05T06:02:29.805Z,20.70
2019-02-05T06:07:31.102Z,16.47
2019-02-05T06:12:32.532Z,21.70
2019-02-05T06:17:33.839Z,84.83
2019-02-05T06:22:35.158Z,54.90
2019-02-05T06:27:36.455Z,57.70
2019-02-05T06:32:37.713Z,38.33
2019-02-05T06:37:39.028Z,35.90
2019-02-05T06:42:40.524Z,17.10
2019-02-05T06:47:42.075Z,35.73
2019-02-05T06:52:43.378Z,26.80
2019-02-05T06:57:45.063Z,14.57
2019-02-05T07:02:46.388Z,42.50
2019-02-05T07:07:47.714Z,68.53
2019-02-05T07:12:49.049Z,46.97
2019-02-05T07:17:50.498Z,46.70
2019-02-05T07:22:51.815Z,34.53
2019-02-05T07:27:53.089Z,23.13
2019-02-05T07:32:54.433Z,37.53
2019-02-05T07:37:55.738Z,89.00
2019-02-05T07:42:57.047Z,103.93
2019-02-05T07:47:58.351Z,89.30
2019-02-05T07:52:59.644Z,97.20
2019-02-05T07:58:01.178Z,87.93
2019-02-05T08:03:02.607Z,82.73
2019-02-05T08:08:04.784Z,82.87
2019-02-05T08:13:06.355Z,109.60
2019-02-05T08:18:08.100Z,259.10
2019-02-05T08:23:09.370Z,220.23
2019-02-05T08:28:10.717Z,400.97
2019-02-05T08:33:12.063Z,88.63
2019-02-05T08:38:13.354Z,210.83
2019-02-05T08:43:14.862Z,143.13
2019-02-05T08:48:16.181Z,88.67
2019-02-05T08:53:17.494Z,122.47
2019-02-05T08:58:30.300Z,92.57
2019-02-05T09:03:22.207Z,101.37
2019-02-05T09:08:23.511Z,129.70
2019-02-05T09:13:25.240Z,91.83
2019-02-05T09:18:26.549Z,98.70
2019-02-05T09:23:27.887Z,76.00
2019-02-05T09:28:29.403Z,275.07
2019-02-05T09:33:30.710Z,49.53
2019-02-05T09:38:31.996Z,66.63
2019-02-05T09:43:33.488Z,64.03
2019-02-05T09:48:34.791Z,64.00
2019-02-05T09:53:36.095Z,62.93
2019-02-05T09:58:37.618Z,72.87
2019-02-05T10:03:38.951Z,49.27
2019-02-05T10:08:40.260Z,44.10
2019-02-05T10:13:41.571Z,95.77
2019-02-05T10:18:45.835Z,46.80
2019-02-05T10:23:46.059Z,50.03
2019-02-05T10:28:47.359Z,42.37
2019-02-05T10:33:55.290Z,46.77
2019-02-05T10:38:51.811Z,36.83
2019-02-05T10:43:53.151Z,44.30
2019-02-05T10:48:54.415Z,58.90
2019-02-05T10:53:55.735Z,44.07
2019-02-05T10:58:57.041Z,48.07
2019-02-05T11:03:58.359Z,46.40
2019-02-05T11:08:59.674Z,44.30
2019-02-05T11:14:00.972Z,44.97
2019-02-05T11:19:02.303Z,46.47
2019-02-05T11:24:03.694Z,50.33
2019-02-05T11:29:05.080Z,58.17
2019-02-05T11:34:06.400Z,52.63
2019-02-05T11:39:13.084Z,53.70
2019-02-05T11:44:14.413Z,48.57
2019-02-05T11:49:15.740Z,38.57
2019-02-05T11:54:17.364Z,43.80
2019-02-05T11:59:18.684Z,52.33
2019-02-05T12:04:20.006Z,57.73
2019-02-05T12:21:14.353Z,38.90
2019-02-05T12:26:15.640Z,46.63
2019-02-05T12:31:16.968Z,35.07
2019-02-05T12:36:18.309Z,12.23
2019-02-05T12:41:19.587Z,37.63
2019-02-05T12:46:21.184Z,29.30
2019-02-05T12:51:22.439Z,36.07
2019-02-05T12:56:23.803Z,26.50
2019-02-05T13:01:25.156Z,27.20
2019-02-05T13:06:26.474Z,40.63
2019-02-05T13:11:27.873Z,42.10
2019-02-05T13:16:29.150Z,39.93
2019-02-05T13:21:30.502Z,54.97
2019-02-05T13:26:31.819Z,42.43
2019-02-05T13:31:33.197Z,40.07
2019-02-05T13:36:34.556Z,39.93
2019-02-05T13:41:35.918Z,35.80
2019-02-05T13:46:37.260Z,34.43
2019-02-05T13:51:38.577Z,30.90
2019-02-05T13:56:40.020Z,25.83
2019-02-05T14:01:44.433Z,28.00
2019-02-05T14:06:44.501Z,25.50
2019-02-05T14:11:45.833Z,28.07
2019-02-05T14:16:47.081Z,26.37
2019-02-05T14:21:48.594Z,26.90
2019-02-05T14:26:50.048Z,24.33
2019-02-05T14:31:51.510Z,22.67
2019-02-05T14:36:52.843Z,23.13
2019-02-05T14:41:54.141Z,24.57
2019-02-05T14:46:55.488Z,25.40
2019-02-05T14:51:57.834Z,23.90
2019-02-05T14:56:59.329Z,24.47
2019-02-05T15:02:00.934Z,29.03
2019-02-05T15:07:02.247Z,48.53
2019-02-05T15:12:03.578Z,39.73
2019-02-05T15:17:04.907Z,39.67
2019-02-05T15:22:06.257Z,28.60
2019-02-05T15:27:07.695Z,31.87
2019-02-05T15:32:10.916Z,33.13
2019-02-05T15:37:12.293Z,34.23
2019-02-05T15:42:13.700Z,30.20
2019-02-05T15:47:15.014Z,67.17
2019-02-05T15:52:16.323Z,43.27
2019-02-05T15:57:17.632Z,61.87
2019-02-05T16:02:18.930Z,45.10
2019-02-05T16:07:20.241Z,61.97
2019-02-05T16:12:21.591Z,58.50
2019-02-05T16:17:22.876Z,49.17
2019-02-05T16:22:24.636Z,45.07
2019-02-05T16:27:25.964Z,44.83
2019-02-05T16:32:27.323Z,84.73
2019-02-05T16:37:28.635Z,93.43
2019-02-05T16:42:29.979Z,82.80
2019-02-05T16:47:31.254Z,89.43
2019-02-05T16:52:32.566Z,100.47
2019-02-05T16:57:33.887Z,86.63
2019-02-05T17:02:35.208Z,318.67
2019-02-05T17:07:36.530Z,55.10
2019-02-05T17:12:38.019Z,39.83
2019-02-05T17:17:39.515Z,43.93
2019-02-05T17:22:40.866Z,44.33
2019-02-05T17:27:42.176Z,35.87
2019-02-05T17:32:43.493Z,88.03
2019-02-05T17:37:44.818Z,49.60
2019-02-05T17:42:46.373Z,19.43
2019-02-05T17:47:47.691Z,36.73
2019-02-05T17:52:48.992Z,71.67
2019-02-05T17:57:50.623Z,20.77
2019-02-05T18:02:51.974Z,19.33
2019-02-05T18:07:53.279Z,27.70
2019-02-05T18:12:54.614Z,23.07
2019-02-05T18:17:55.951Z,20.13
2019-02-05T18:22:57.278Z,19.40
2019-02-05T18:27:58.641Z,18.10
2019-02-05T18:33:04.918Z,18.30
2019-02-05T18:38:12.880Z,18.63
2019-02-05T18:43:14.220Z,38.97
2019-02-05T18:48:15.653Z,22.13
2019-02-05T18:53:16.980Z,23.53
2019-02-05T18:58:18.299Z,17.77
2019-02-05T19:03:19.908Z,24.73
2019-02-05T19:08:21.264Z,14.53
2019-02-05T19:13:22.660Z,18.40
2019-02-05T19:18:23.938Z,24.63
2019-02-05T19:23:26.165Z,18.27
2019-02-05T19:28:29.386Z,39.47
2019-02-05T19:33:30.696Z,35.77
2019-02-05T19:38:32.025Z,43.37
2019-02-05T19:43:33.804Z,46.77
2019-02-05T19:48:43.012Z,52.33
2019-02-05T19:53:44.334Z,53.77
2019-02-05T19:58:45.647Z,68.67
2019-02-05T20:03:47.114Z,59.03
2019-02-05T20:08:48.427Z,42.60
2019-02-05T20:13:50.008Z,23.37
2019-02-05T20:18:51.339Z,38.77
2019-02-05T20:23:52.623Z,28.70
2019-02-05T20:28:54.058Z,19.10
2019-02-05T20:33:55.296Z,19.33
2019-02-05T20:38:56.703Z,31.57
2019-02-05T20:43:57.998Z,15.13
2019-02-05T20:48:59.277Z,22.20
2019-02-05T20:54:00.595Z,17.43
2019-02-05T20:59:01.915Z,17.10
2019-02-05T21:04:03.332Z,14.67
2019-02-05T21:09:08.472Z,13.57
2019-02-05T21:14:09.721Z,16.27
2019-02-05T21:19:11.070Z,16.67
2019-02-05T21:24:12.408Z,15.10
2019-02-05T21:29:13.764Z,16.83
2019-02-05T21:34:16.122Z,16.37
2019-02-05T21:39:20.314Z,18.23
2019-02-05T21:44:21.620Z,17.43
2019-02-05T21:49:23.021Z,15.23
2019-02-05T21:54:24.583Z,15.10
2019-02-05T21:59:25.903Z,14.80
2019-02-05T22:04:28.256Z,14.77
2019-02-05T22:09:29.684Z,16.60
2019-02-05T22:14:31.115Z,13.53
2019-02-05T22:19:32.444Z,13.77
2019-02-05T22:24:40.005Z,14.17
2019-02-05T22:29:41.620Z,16.07
2019-02-05T22:34:42.943Z,15.83
2019-02-05T22:39:44.268Z,16.07
2019-02-05T22:44:45.562Z,14.67
2019-02-05T22:49:46.865Z,14.23
2019-02-05T22:54:48.287Z,14.07
2019-02-05T22:59:49.602Z,12.23
2019-02-05T23:04:54.742Z,37.40
2019-02-05T23:09:59.847Z,13.77
2019-02-05T23:15:08.089Z,36.93
2019-02-05T23:20:12.413Z,18.47
2019-02-05T23:25:13.791Z,16.17
2019-02-05T23:30:17.722Z,12.30
2019-02-05T23:35:19.058Z,16.60
2019-02-05T23:40:20.765Z,16.47
2019-02-05T23:45:22.055Z,13.90
2019-02-05T23:50:23.361Z,11.47
2019-02-05T23:55:24.732Z,13.77
